Time;durP1;ratioP1;P1;durP2;ratioP2;P2;SDS_P1;SDS_P2;PMS_P1;PMS_P2;Temp;Humidity;BMP_temperature;BMP_pressure;BME280_temperature;BME280_humidity;BME280_pressure;Samples;Min_cycle;Max_cycle;Signal;HPM_P1;HPM_P2
2021/01/12 00:00:02;;;;;;;39.07;20.20;;;;;;;;;;5051799;28;20442;-83
2021/01/12 00:02:28;;;;;;;41.40;21.70;;;;;;;;;;5050955;28;20558;-82
2021/01/12 00:04:55;;;;;;;44.43;20.43;;;;;;;;;;5053503;28;20465;-82
2021/01/12 00:07:22;;;;;;;44.10;23.60;;;;;;;;;;5060322;28;20450;-83
2021/01/12 00:09:50;;;;;;;40.23;22.10;;;;;;;;;;5053605;28;20863;-82
2021/01/12 00:12:18;;;;;;;40.57;21.03;;;;;;;;;;5052950;28;20496;-82
2021/01/12 00:14:44;;;;;;;46.63;24.30;;;;;;;;;;5055204;28;20453;-82
2021/01/12 00:17:11;;;;;;;39.67;22.50;;;;;;;;;;5055217;28;20454;-83
2021/01/12 00:19:38;;;;;;;48.47;22.53;;;;;;;;;;5054913;28;20569;-83
2021/01/12 00:22:07;;;;;;;52.10;22.70;;;;;;;;;;5049614;28;20553;-83
2021/01/12 00:24:34;;;;;;;39.63;21.40;;;;;;;;;;5044721;28;20451;-83
2021/01/12 00:27:01;;;;;;;47.67;21.80;;;;;;;;;;5049990;28;20466;-83
2021/01/12 00:29:28;;;;;;;43.87;21.40;;;;;;;;;;5054720;28;20450;-84
2021/01/12 00:31:55;;;;;;;42.67;20.33;;;;;;;;;;5051002;28;20466;-84
2021/01/12 00:34:21;;;;;;;40.50;22.87;;;;;;;;;;5048888;28;20458;-83
2021/01/12 00:36:49;;;;;;;40.93;21.87;;;;;;;;;;5048827;28;20449;-83
2021/01/12 00:39:16;;;;;;;47.63;21.43;;;;;;;;;;5044954;28;20500;-83
2021/01/12 00:41:46;;;;;;;38.20;20.77;;;;;;;;;;5053634;28;20438;-83
2021/01/12 00:44:13;;;;;;;41.83;24.70;;;;;;;;;;5053856;28;20458;-83
2021/01/12 00:46:43;;;;;;;55.07;20.80;;;;;;;;;;5056154;28;20811;-84
2021/01/12 00:49:09;;;;;;;43.10;21.17;;;;;;;;;;5054072;28;20516;-83
2021/01/12 00:51:36;;;;;;;45.83;25.33;;;;;;;;;;5051096;28;20478;-84
2021/01/12 00:54:03;;;;;;;44.77;23.67;;;;;;;;;;5049891;28;20488;-83
2021/01/12 00:56:30;;;;;;;45.60;22.97;;;;;;;;;;5053168;28;20446;-83
2021/01/12 00:58:56;;;;;;;43.10;24.53;;;;;;;;;;5050405;28;20450;-85
2021/01/12 01:01:24;;;;;;;42.73;19.57;;;;;;;;;;5055289;28;20452;-84
2021/01/12 01:03:50;;;;;;;36.90;20.43;;;;;;;;;;5048551;28;20477;-83
2021/01/12 01:06:17;;;;;;;50.07;25.10;;;;;;;;;;5052640;28;20937;-83
2021/01/12 01:08:43;;;;;;;45.53;24.20;;;;;;;;;;5053033;28;20439;-82
2021/01/12 01:11:10;;;;;;;51.73;22.70;;;;;;;;;;5054446;28;20482;-82
2021/01/12 01:13:36;;;;;;;50.73;24.20;;;;;;;;;;5052573;28;20469;-83
2021/01/12 01:16:03;;;;;;;49.27;26.07;;;;;;;;;;5057572;28;20453;-83
2021/01/12 01:18:31;;;;;;;41.57;23.07;;;;;;;;;;5062925;28;20461;-83
2021/01/12 01:20:57;;;;;;;49.27;23.10;;;;;;;;;;5053688;28;20446;-83
2021/01/12 01:23:24;;;;;;;41.97;24.33;;;;;;;;;;5055660;28;20474;-83
2021/01/12 01:25:50;;;;;;;37.63;18.47;;;;;;;;;;5050332;28;20481;-83
2021/01/12 01:28:17;;;;;;;45.60;24.10;;;;;;;;;;5055919;28;20454;-83
2021/01/12 01:30:44;;;;;;;46.10;24.33;;;;;;;;;;5058069;28;20477;-82
2021/01/12 01:33:10;;;;;;;35.00;17.97;;;;;;;;;;5050038;28;20481;-83
2021/01/12 01:35:37;;;;;;;52.83;23.63;;;;;;;;;;5055253;28;20453;-83
2021/01/12 01:38:04;;;;;;;46.63;22.53;;;;;;;;;;5058910;28;20452;-83
2021/01/12 01:40:31;;;;;;;42.93;21.50;;;;;;;;;;5076638;28;20630;-83
2021/01/12 01:42:58;;;;;;;45.27;22.53;;;;;;;;;;5073724;28;20479;-84
2021/01/12 01:45:25;;;;;;;50.77;24.23;;;;;;;;;;5074194;28;20814;-83
2021/01/12 01:47:51;;;;;;;32.97;17.27;;;;;;;;;;5072719;28;20468;-84
2021/01/12 01:50:19;;;;;;;31.90;18.53;;;;;;;;;;5072038;28;20480;-83
2021/01/12 01:52:52;;;;;;;50.10;26.40;;;;;;;;;;5066945;28;20969;-83
2021/01/12 01:55:19;;;;;;;46.37;26.20;;;;;;;;;;5076426;28;20441;-83
2021/01/12 01:57:45;;;;;;;46.30;24.77;;;;;;;;;;5076257;28;20456;-84
2021/01/12 02:00:15;;;;;;;50.93;27.00;;;;;;;;;;5077111;28;20449;-83
2021/01/12 02:02:47;;;;;;;51.17;25.57;;;;;;;;;;5075267;28;20487;-85
2021/01/12 02:05:14;;;;;;;46.00;24.30;;;;;;;;;;5073756;28;20452;-85
2021/01/12 02:07:42;;;;;;;43.53;22.33;;;;;;;;;;5075900;28;20445;-82
2021/01/12 02:10:11;;;;;;;46.47;21.60;;;;;;;;;;5074115;28;20481;-83
2021/01/12 02:12:39;;;;;;;46.47;23.50;;;;;;;;;;5068012;28;20478;-83
2021/01/12 02:15:07;;;;;;;45.53;20.10;;;;;;;;;;5073160;28;20442;-83
2021/01/12 02:17:34;;;;;;;47.70;25.57;;;;;;;;;;5073955;28;20454;-84
2021/01/12 02:20:01;;;;;;;53.97;27.73;;;;;;;;;;5073597;28;20444;-83
2021/01/12 02:22:28;;;;;;;55.17;26.83;;;;;;;;;;5074365;28;20486;-83
2021/01/12 02:24:56;;;;;;;48.43;26.10;;;;;;;;;;5073356;28;20483;-83
2021/01/12 02:27:23;;;;;;;42.17;20.13;;;;;;;;;;5074255;28;20994;-83
2021/01/12 02:29:50;;;;;;;45.47;23.00;;;;;;;;;;5067963;28;20468;-83
2021/01/12 02:32:17;;;;;;;39.20;22.40;;;;;;;;;;5073189;28;20457;-83
2021/01/12 02:34:44;;;;;;;32.57;20.03;;;;;;;;;;5064565;28;20454;-86
2021/01/12 02:37:11;;;;;;;45.43;19.87;;;;;;;;;;5072034;28;20452;-83
2021/01/12 02:39:38;;;;;;;37.83;22.33;;;;;;;;;;5071744;28;20468;-83
2021/01/12 02:42:14;;;;;;;45.97;26.47;;;;;;;;;;5072264;28;20543;-85
2021/01/12 02:44:40;;;;;;;48.47;22.43;;;;;;;;;;5075348;28;20449;-84
2021/01/12 02:47:07;;;;;;;39.20;19.33;;;;;;;;;;5073552;28;20457;-85
2021/01/12 02:49:34;;;;;;;47.57;26.00;;;;;;;;;;5070649;28;20457;-83
2021/01/12 02:52:01;;;;;;;50.37;24.97;;;;;;;;;;5072723;28;20493;-81
2021/01/12 02:54:28;;;;;;;39.07;21.33;;;;;;;;;;5073148;28;20833;-83
2021/01/12 02:56:54;;;;;;;42.27;24.47;;;;;;;;;;5071856;28;20913;-84
2021/01/12 02:59:22;;;;;;;42.07;25.43;;;;;;;;;;5075325;28;20453;-83
2021/01/12 03:01:48;;;;;;;47.57;25.77;;;;;;;;;;5073597;28;20442;-85
2021/01/12 03:04:15;;;;;;;49.20;26.80;;;;;;;;;;5074038;28;20465;-84
2021/01/12 03:06:42;;;;;;;46.77;25.90;;;;;;;;;;5071906;28;20457;-83
2021/01/12 03:09:08;;;;;;;33.83;16.60;;;;;;;;;;5075597;28;20880;-84
2021/01/12 03:11:35;;;;;;;48.23;25.10;;;;;;;;;;5074534;28;20473;-83
2021/01/12 03:14:01;;;;;;;53.93;28.33;;;;;;;;;;5066440;28;20446;-84
2021/01/12 03:16:33;;;;;;;44.63;23.27;;;;;;;;;;5076060;28;20453;-84
2021/01/12 03:19:00;;;;;;;48.27;26.33;;;;;;;;;;5074461;28;20500;-84
2021/01/12 03:21:27;;;;;;;47.30;24.87;;;;;;;;;;5073643;28;20453;-83
2021/01/12 03:23:53;;;;;;;55.23;27.07;;;;;;;;;;5060492;28;20515;-83
2021/01/12 03:26:20;;;;;;;50.47;27.33;;;;;;;;;;5067966;28;20457;-83
2021/01/12 03:28:47;;;;;;;42.90;25.47;;;;;;;;;;5069278;28;20465;-83
2021/01/12 03:31:13;;;;;;;46.60;26.27;;;;;;;;;;5072293;28;20477;-84
2021/01/12 03:33:41;;;;;;;49.67;26.40;;;;;;;;;;5071404;28;20473;-83
2021/01/12 03:36:07;;;;;;;42.63;23.60;;;;;;;;;;5068058;28;20446;-83
2021/01/12 03:38:34;;;;;;;49.83;26.07;;;;;;;;;;5065421;28;20446;-83
2021/01/12 03:41:01;;;;;;;45.23;26.33;;;;;;;;;;5073692;28;21009;-84
2021/01/12 03:43:27;;;;;;;43.00;24.17;;;;;;;;;;5070867;28;20473;-85
2021/01/12 03:45:54;;;;;;;48.13;26.70;;;;;;;;;;5070950;28;20460;-85
2021/01/12 03:48:21;;;;;;;33.43;17.17;;;;;;;;;;5064506;28;20848;-84
2021/01/12 03:50:48;;;;;;;36.60;18.30;;;;;;;;;;5070829;28;20485;-84
2021/01/12 03:53:16;;;;;;;45.27;24.63;;;;;;;;;;5070267;28;21001;-83
2021/01/12 03:55:43;;;;;;;41.57;22.90;;;;;;;;;;5062838;28;20489;-83
2021/01/12 03:58:09;;;;;;;42.50;23.80;;;;;;;;;;5073681;28;21209;-84
2021/01/12 04:00:36;;;;;;;40.97;22.23;;;;;;;;;;5070555;28;20550;-83
2021/01/12 04:03:02;;;;;;;42.10;24.30;;;;;;;;;;5070543;28;20480;-85
2021/01/12 04:05:30;;;;;;;47.97;26.33;;;;;;;;;;5071858;28;20540;-83
2021/01/12 04:07:57;;;;;;;48.73;27.90;;;;;;;;;;5070354;28;20470;-83
2021/01/12 04:10:24;;;;;;;31.63;19.33;;;;;;;;;;5071897;28;20487;-83
2021/01/12 04:12:50;;;;;;;42.57;23.83;;;;;;;;;;5071298;28;20525;-83
2021/01/12 04:15:17;;;;;;;43.87;24.47;;;;;;;;;;5072632;28;20465;-82
2021/01/12 04:17:43;;;;;;;40.03;24.17;;;;;;;;;;5069595;28;20943;-83
2021/01/12 04:20:11;;;;;;;35.23;19.97;;;;;;;;;;5071306;28;20453;-82
2021/01/12 04:22:37;;;;;;;37.20;20.40;;;;;;;;;;5062777;28;20489;-85
2021/01/12 04:25:06;;;;;;;44.37;24.73;;;;;;;;;;5069750;28;20441;-85
2021/01/12 04:27:33;;;;;;;42.87;24.63;;;;;;;;;;5070608;28;20468;-84
2021/01/12 04:29:59;;;;;;;34.13;19.30;;;;;;;;;;5069527;28;20540;-83
2021/01/12 04:32:26;;;;;;;45.13;25.37;;;;;;;;;;5068111;28;20610;-85
2021/01/12 04:34:52;;;;;;;48.03;23.90;;;;;;;;;;5066657;28;20458;-83
2021/01/12 04:37:19;;;;;;;41.27;23.60;;;;;;;;;;5071712;28;20978;-83
2021/01/12 04:39:46;;;;;;;38.57;24.33;;;;;;;;;;5060724;28;21030;-82
2021/01/12 04:42:13;;;;;;;47.07;25.77;;;;;;;;;;5067136;28;20871;-83
2021/01/12 04:44:40;;;;;;;45.07;28.00;;;;;;;;;;5072399;28;20453;-82
2021/01/12 04:47:07;;;;;;;40.87;23.40;;;;;;;;;;5068492;28;20464;-82
2021/01/12 04:49:33;;;;;;;39.37;18.93;;;;;;;;;;5070114;28;20447;-83
2021/01/12 04:52:00;;;;;;;40.87;22.30;;;;;;;;;;5067269;28;20879;-83
2021/01/12 04:54:31;;;;;;;38.87;22.23;;;;;;;;;;5075488;28;20508;-83
2021/01/12 04:56:58;;;;;;;45.70;26.27;;;;;;;;;;5073865;28;20464;-85
2021/01/12 04:59:28;;;;;;;30.47;16.77;;;;;;;;;;5075953;28;20453;-83
2021/01/12 05:01:55;;;;;;;40.37;23.73;;;;;;;;;;5072461;28;20844;-83
2021/01/12 05:04:21;;;;;;;51.27;23.90;;;;;;;;;;5066420;28;20449;-82
2021/01/12 05:06:48;;;;;;;41.33;21.80;;;;;;;;;;5076795;28;20526;-82
2021/01/12 05:09:20;;;;;;;45.77;24.90;;;;;;;;;;5073436;28;20525;-83
2021/01/12 05:11:47;;;;;;;46.47;27.33;;;;;;;;;;5063957;28;20492;-82
2021/01/12 05:14:14;;;;;;;37.43;18.90;;;;;;;;;;5073450;28;20460;-84
2021/01/12 05:16:47;;;;;;;35.43;18.63;;;;;;;;;;5068281;28;20843;-82
2021/01/12 05:19:18;;;;;;;40.00;22.97;;;;;;;;;;5064236;28;20440;-83
2021/01/12 05:21:46;;;;;;;32.50;20.47;;;;;;;;;;5075794;28;20517;-83
2021/01/12 05:24:13;;;;;;;38.70;22.23;;;;;;;;;;5071602;28;20454;-83
2021/01/12 05:26:39;;;;;;;43.63;23.20;;;;;;;;;;5067947;28;20457;-82
2021/01/12 05:29:07;;;;;;;34.17;18.60;;;;;;;;;;5068956;28;20447;-82
2021/01/12 05:31:35;;;;;;;42.73;22.67;;;;;;;;;;5072251;28;20519;-82
2021/01/12 05:34:05;;;;;;;36.30;20.60;;;;;;;;;;5069284;28;20461;-83
2021/01/12 05:36:33;;;;;;;38.27;19.03;;;;;;;;;;5067923;28;20536;-84
2021/01/12 05:38:59;;;;;;;34.43;19.13;;;;;;;;;;5071069;28;20457;-84
2021/01/12 05:41:26;;;;;;;39.53;21.77;;;;;;;;;;5075171;28;20453;-84
2021/01/12 05:43:53;;;;;;;47.77;23.30;;;;;;;;;;5071903;28;20580;-82
2021/01/12 05:46:20;;;;;;;35.47;19.30;;;;;;;;;;5070557;28;20472;-86
2021/01/12 05:48:47;;;;;;;30.97;18.83;;;;;;;;;;5067547;28;20463;-83
2021/01/12 05:51:15;;;;;;;36.03;20.57;;;;;;;;;;5071343;28;20485;-83
2021/01/12 05:54:04;;;;;;;36.40;18.57;;;;;;;;;;5065346;28;20503;-83
2021/01/12 05:56:32;;;;;;;39.80;22.80;;;;;;;;;;5068387;28;20457;-84
2021/01/12 05:58:59;;;;;;;38.33;22.60;;;;;;;;;;5075895;28;20449;-83
2021/01/12 06:01:32;;;;;;;32.37;21.60;;;;;;;;;;5072491;28;20483;-81
2021/01/12 06:03:58;;;;;;;36.70;19.80;;;;;;;;;;5065115;28;20470;-84
2021/01/12 06:06:26;;;;;;;37.73;21.47;;;;;;;;;;5067759;28;20457;-83
2021/01/12 06:08:53;;;;;;;29.03;17.70;;;;;;;;;;5072635;28;20870;-82
2021/01/12 06:11:20;;;;;;;34.37;18.63;;;;;;;;;;5068185;28;20481;-82
2021/01/12 06:13:53;;;;;;;27.97;17.40;;;;;;;;;;5065065;28;20482;-82
2021/01/12 06:16:23;;;;;;;33.37;18.57;;;;;;;;;;5075589;28;20445;-82
2021/01/12 06:18:58;;;;;;;35.93;19.07;;;;;;;;;;5072132;28;20453;-82
2021/01/12 06:21:27;;;;;;;31.97;18.67;;;;;;;;;;5069131;28;20449;-83
2021/01/12 06:23:55;;;;;;;33.33;21.00;;;;;;;;;;5068694;28;20468;-83
2021/01/12 06:26:22;;;;;;;34.70;20.90;;;;;;;;;;5071271;28;20452;-82
2021/01/12 06:28:49;;;;;;;36.87;20.60;;;;;;;;;;5075214;28;20441;-82
2021/01/12 06:31:15;;;;;;;42.40;22.43;;;;;;;;;;5075593;28;20481;-81
2021/01/12 06:33:42;;;;;;;22.80;15.60;;;;;;;;;;5073283;28;20480;-82
2021/01/12 06:36:10;;;;;;;33.70;20.27;;;;;;;;;;5075201;28;20453;-82
2021/01/12 06:38:38;;;;;;;37.10;19.60;;;;;;;;;;5069763;28;20441;-82
2021/01/12 06:41:07;;;;;;;34.40;21.70;;;;;;;;;;5072156;28;20441;-82
2021/01/12 06:43:33;;;;;;;34.57;21.60;;;;;;;;;;5075098;28;20492;-82
2021/01/12 06:46:01;;;;;;;33.40;18.13;;;;;;;;;;5073430;28;20449;-82
2021/01/12 06:48:28;;;;;;;25.93;15.40;;;;;;;;;;5068159;28;20467;-84
2021/01/12 06:50:55;;;;;;;29.17;15.03;;;;;;;;;;5072286;28;21014;-82
2021/01/12 06:53:22;;;;;;;35.30;21.00;;;;;;;;;;5061759;28;20536;-82
2021/01/12 06:55:50;;;;;;;38.27;22.90;;;;;;;;;;5070753;28;21116;-82
2021/01/12 06:58:16;;;;;;;26.67;15.77;;;;;;;;;;5076025;28;20445;-82
2021/01/12 07:00:48;;;;;;;32.80;18.20;;;;;;;;;;5075428;28;20469;-81
2021/01/12 07:03:28;;;;;;;30.20;12.63;;;;;;;;;;5070966;28;20485;-81
2021/01/12 07:05:59;;;;;;;40.90;22.67;;;;;;;;;;5074038;28;20455;-81
2021/01/12 07:08:27;;;;;;;37.87;22.47;;;;;;;;;;5068580;28;20449;-80
2021/01/12 07:10:54;;;;;;;40.27;24.00;;;;;;;;;;5065199;28;20488;-80
2021/01/12 07:13:21;;;;;;;36.50;20.50;;;;;;;;;;5066979;28;20997;-82
2021/01/12 07:15:48;;;;;;;46.97;21.03;;;;;;;;;;5069363;28;20461;-81
2021/01/12 07:18:15;;;;;;;37.87;19.90;;;;;;;;;;5062439;28;20975;-82
2021/01/12 07:20:42;;;;;;;33.50;20.60;;;;;;;;;;5071681;28;20528;-82
2021/01/12 07:23:10;;;;;;;40.97;21.90;;;;;;;;;;5066314;28;20539;-81
2021/01/12 07:25:37;;;;;;;43.57;22.77;;;;;;;;;;5059895;28;20437;-82
2021/01/12 07:28:06;;;;;;;41.23;21.93;;;;;;;;;;5061354;28;20948;-81
2021/01/12 07:30:34;;;;;;;36.40;20.70;;;;;;;;;;5069235;28;20489;-82
2021/01/12 07:33:02;;;;;;;42.80;26.27;;;;;;;;;;5069848;28;20485;-82
2021/01/12 07:35:29;;;;;;;38.57;16.47;;;;;;;;;;5070476;28;20452;-83
2021/01/12 07:37:56;;;;;;;30.50;19.70;;;;;;;;;;5070526;28;20492;-81
2021/01/12 07:40:23;;;;;;;38.73;21.43;;;;;;;;;;5067931;28;20541;-81
2021/01/12 07:42:53;;;;;;;35.90;20.20;;;;;;;;;;5071243;28;20785;-82
2021/01/12 07:45:21;;;;;;;40.17;19.50;;;;;;;;;;5069068;28;20468;-82
2021/01/12 07:47:52;;;;;;;32.67;19.37;;;;;;;;;;5069953;28;20457;-82
2021/01/12 07:50:19;;;;;;;41.00;21.53;;;;;;;;;;5062435;28;20467;-83
2021/01/12 07:52:45;;;;;;;27.93;16.90;;;;;;;;;;5065732;28;20478;-81
2021/01/12 07:55:12;;;;;;;38.63;21.77;;;;;;;;;;5070828;28;20449;-82
2021/01/12 07:57:39;;;;;;;36.90;20.67;;;;;;;;;;5072129;28;20471;-81
2021/01/12 08:00:07;;;;;;;32.10;19.60;;;;;;;;;;5072756;28;20460;-82
2021/01/12 08:02:35;;;;;;;34.43;19.70;;;;;;;;;;5068365;28;20477;-82
2021/01/12 08:05:03;;;;;;;43.07;19.07;;;;;;;;;;5072650;28;20456;-81
2021/01/12 08:07:30;;;;;;;41.03;21.07;;;;;;;;;;5065863;28;20449;-82
2021/01/12 08:09:57;;;;;;;29.50;17.50;;;;;;;;;;5071427;28;20503;-84
2021/01/12 08:12:24;;;;;;;38.93;21.27;;;;;;;;;;5068685;28;20516;-82
2021/01/12 08:14:51;;;;;;;27.83;16.53;;;;;;;;;;5069296;28;20461;-81
2021/01/12 08:17:21;;;;;;;33.60;19.43;;;;;;;;;;5068899;28;20453;-81
2021/01/12 08:19:49;;;;;;;28.90;18.10;;;;;;;;;;5071263;28;20494;-81
2021/01/12 08:22:17;;;;;;;31.50;18.40;;;;;;;;;;5066796;28;20465;-82
2021/01/12 08:24:44;;;;;;;28.90;15.97;;;;;;;;;;5071455;28;20449;-81
2021/01/12 08:27:10;;;;;;;38.57;21.40;;;;;;;;;;5073340;28;20840;-82
2021/01/12 08:29:37;;;;;;;33.67;19.10;;;;;;;;;;5066960;28;20458;-82
2021/01/12 08:32:04;;;;;;;35.17;20.10;;;;;;;;;;5071510;28;20512;-82
2021/01/12 08:34:33;;;;;;;33.17;16.13;;;;;;;;;;5074085;28;21089;-82
2021/01/12 08:37:03;;;;;;;28.03;16.47;;;;;;;;;;5073925;28;20469;-82
2021/01/12 08:39:31;;;;;;;36.50;20.87;;;;;;;;;;5071535;28;20456;-83
2021/01/12 08:41:58;;;;;;;30.10;18.30;;;;;;;;;;5069059;28;20483;-84
2021/01/12 08:44:26;;;;;;;31.27;17.67;;;;;;;;;;5073439;28;20437;-82
2021/01/12 08:46:53;;;;;;;31.30;16.93;;;;;;;;;;5066874;28;20470;-81
2021/01/12 08:49:29;;;;;;;35.90;21.33;;;;;;;;;;5073022;28;20437;-82
2021/01/12 08:51:56;;;;;;;18.67;11.93;;;;;;;;;;5072224;28;20577;-82
2021/01/12 08:54:24;;;;;;;32.47;18.97;;;;;;;;;;5071441;28;20456;-83
2021/01/12 08:56:55;;;;;;;35.03;17.63;;;;;;;;;;5069768;28;20461;-83
2021/01/12 08:59:27;;;;;;;27.57;15.47;;;;;;;;;;5072155;28;20449;-83
2021/01/12 09:01:54;;;;;;;31.30;17.57;;;;;;;;;;5057933;28;20457;-82
2021/01/12 09:04:21;;;;;;;26.67;16.00;;;;;;;;;;5071199;28;20790;-82
2021/01/12 09:06:47;;;;;;;27.77;17.63;;;;;;;;;;5069694;28;20453;-83
2021/01/12 09:09:14;;;;;;;24.70;15.23;;;;;;;;;;5072730;28;20461;-82
2021/01/12 09:11:46;;;;;;;22.40;14.60;;;;;;;;;;5071667;28;20485;-82
2021/01/12 09:14:13;;;;;;;30.60;16.90;;;;;;;;;;5068545;28;20484;-82
2021/01/12 09:16:42;;;;;;;34.70;18.80;;;;;;;;;;5072152;28;20448;-81
2021/01/12 09:19:18;;;;;;;24.97;14.60;;;;;;;;;;5067245;28;20453;-84
2021/01/12 09:21:44;;;;;;;32.10;19.07;;;;;;;;;;5064970;28;20453;-82
2021/01/12 09:24:16;;;;;;;33.50;17.50;;;;;;;;;;5074281;28;20456;-82
2021/01/12 09:26:43;;;;;;;28.73;13.30;;;;;;;;;;5071968;28;20449;-83
2021/01/12 09:29:10;;;;;;;32.83;16.00;;;;;;;;;;5066167;28;20449;-82
2021/01/12 09:31:44;;;;;;;23.57;13.40;;;;;;;;;;5072185;28;20477;-82
2021/01/12 09:34:10;;;;;;;25.90;14.73;;;;;;;;;;5069190;28;20518;-82
2021/01/12 09:36:37;;;;;;;29.77;16.77;;;;;;;;;;5070831;28;20448;-82
2021/01/12 09:39:11;;;;;;;28.93;16.10;;;;;;;;;;5070180;28;20470;-82
2021/01/12 09:41:38;;;;;;;29.17;19.00;;;;;;;;;;5072997;28;21043;-81
2021/01/12 09:44:05;;;;;;;27.60;17.53;;;;;;;;;;5073205;28;20467;-81
2021/01/12 09:46:32;;;;;;;32.33;18.33;;;;;;;;;;5075656;28;20494;-81
2021/01/12 09:48:59;;;;;;;34.93;15.50;;;;;;;;;;5075470;28;20445;-82
2021/01/12 09:51:25;;;;;;;29.57;16.23;;;;;;;;;;5077676;28;20481;-81
2021/01/12 09:53:52;;;;;;;32.73;16.67;;;;;;;;;;5075299;28;20480;-82
2021/01/12 09:56:20;;;;;;;29.87;17.63;;;;;;;;;;5074775;28;20461;-82
2021/01/12 09:58:47;;;;;;;28.17;15.77;;;;;;;;;;5069466;28;20511;-81
2021/01/12 10:01:14;;;;;;;35.87;16.73;;;;;;;;;;5077279;28;20445;-82
2021/01/12 10:03:41;;;;;;;32.63;17.27;;;;;;;;;;5066769;28;20468;-81
2021/01/12 10:06:08;;;;;;;28.60;15.47;;;;;;;;;;5077051;28;20468;-83
2021/01/12 10:08:34;;;;;;;26.90;15.23;;;;;;;;;;5076873;28;20467;-82
2021/01/12 10:11:03;;;;;;;29.63;15.40;;;;;;;;;;5073570;28;20585;-82
2021/01/12 10:13:30;;;;;;;20.73;12.97;;;;;;;;;;5073023;28;20457;-83
2021/01/12 10:15:57;;;;;;;22.90;12.60;;;;;;;;;;5075368;28;20470;-82
2021/01/12 10:18:23;;;;;;;24.03;14.23;;;;;;;;;;5073794;28;20465;-81
2021/01/12 10:20:51;;;;;;;23.30;13.97;;;;;;;;;;5075738;28;20816;-81
2021/01/12 10:23:17;;;;;;;16.50;10.50;;;;;;;;;;5064285;28;20474;-82
2021/01/12 10:25:44;;;;;;;25.30;14.47;;;;;;;;;;5066653;28;20475;-81
2021/01/12 10:28:11;;;;;;;22.67;12.67;;;;;;;;;;5064277;28;20452;-81
2021/01/12 10:30:37;;;;;;;19.60;13.30;;;;;;;;;;5071637;28;20874;-83
2021/01/12 10:33:04;;;;;;;19.90;10.83;;;;;;;;;;5070931;28;20477;-82
2021/01/12 10:35:31;;;;;;;19.70;12.40;;;;;;;;;;5076001;28;20452;-81
2021/01/12 10:37:58;;;;;;;20.67;13.20;;;;;;;;;;5071083;28;20495;-81
2021/01/12 10:40:25;;;;;;;24.93;12.83;;;;;;;;;;5071116;28;20461;-81
2021/01/12 10:42:52;;;;;;;20.50;14.43;;;;;;;;;;5074790;28;20908;-81
2021/01/12 10:45:18;;;;;;;32.13;15.13;;;;;;;;;;5073786;28;20507;-82
2021/01/12 10:47:45;;;;;;;23.30;14.37;;;;;;;;;;5072329;28;20457;-81
2021/01/12 10:50:13;;;;;;;17.97;12.10;;;;;;;;;;5072155;28;20452;-81
2021/01/12 10:52:39;;;;;;;19.30;11.93;;;;;;;;;;5068830;28;20488;-81
2021/01/12 10:55:08;;;;;;;20.13;11.67;;;;;;;;;;5077813;28;20455;-81
2021/01/12 10:57:35;;;;;;;20.47;13.07;;;;;;;;;;5073460;28;20529;-82
2021/01/12 11:00:02;;;;;;;15.90;11.10;;;;;;;;;;5069407;28;20453;-81
2021/01/12 11:02:32;;;;;;;23.30;13.20;;;;;;;;;;5062050;28;20472;-81
2021/01/12 11:04:58;;;;;;;24.90;15.83;;;;;;;;;;5075653;28;20530;-81
2021/01/12 11:07:25;;;;;;;20.10;11.97;;;;;;;;;;5070588;28;20461;-81
2021/01/12 11:09:51;;;;;;;18.40;11.00;;;;;;;;;;5071659;28;20468;-81
2021/01/12 11:12:19;;;;;;;19.60;12.50;;;;;;;;;;5072292;28;20824;-81
2021/01/12 11:14:46;;;;;;;25.37;14.73;;;;;;;;;;5072838;28;20453;-81
2021/01/12 11:17:13;;;;;;;20.30;13.90;;;;;;;;;;5067470;28;20466;-80
2021/01/12 11:19:39;;;;;;;21.30;11.83;;;;;;;;;;5071299;28;20465;-81
2021/01/12 11:22:06;;;;;;;19.40;14.17;;;;;;;;;;5069536;28;20481;-82
2021/01/12 11:24:33;;;;;;;22.70;12.17;;;;;;;;;;5069591;28;20438;-81
2021/01/12 11:26:59;;;;;;;22.10;13.83;;;;;;;;;;5071470;28;20464;-81
2021/01/12 11:29:27;;;;;;;25.40;12.00;;;;;;;;;;5068247;28;20461;-82
2021/01/12 11:31:57;;;;;;;19.43;11.10;;;;;;;;;;5071741;28;20481;-81
2021/01/12 11:34:23;;;;;;;21.13;14.67;;;;;;;;;;5070915;28;20442;-81
2021/01/12 11:36:50;;;;;;;21.40;13.90;;;;;;;;;;5068129;28;20436;-81
2021/01/12 11:39:18;;;;;;;23.37;16.53;;;;;;;;;;5074065;28;20453;-82
2021/01/12 11:41:49;;;;;;;21.20;13.00;;;;;;;;;;5068754;28;20480;-83
2021/01/12 11:44:15;;;;;;;29.07;15.00;;;;;;;;;;5065683;28;20472;-81
2021/01/12 11:46:43;;;;;;;34.70;14.40;;;;;;;;;;5072553;28;20464;-81
2021/01/12 11:49:10;;;;;;;25.80;14.33;;;;;;;;;;5069548;28;20452;-81
2021/01/12 11:51:37;;;;;;;24.30;15.40;;;;;;;;;;5074123;28;20473;-81
2021/01/12 11:54:04;;;;;;;22.50;13.97;;;;;;;;;;5070078;28;20484;-81
2021/01/12 11:56:31;;;;;;;21.07;11.97;;;;;;;;;;5071314;28;20472;-81
2021/01/12 11:58:58;;;;;;;21.87;15.37;;;;;;;;;;5067820;28;20456;-81
2021/01/12 12:01:24;;;;;;;24.40;13.43;;;;;;;;;;5066919;28;21037;-82
2021/01/12 12:03:52;;;;;;;27.53;17.80;;;;;;;;;;5069873;28;20515;-81
2021/01/12 12:06:18;;;;;;;25.27;17.10;;;;;;;;;;5071466;28;20463;-82
2021/01/12 12:08:45;;;;;;;27.30;16.03;;;;;;;;;;5071294;28;20445;-81
2021/01/12 12:11:12;;;;;;;27.60;16.23;;;;;;;;;;5068458;28;21001;-81
2021/01/12 12:13:41;;;;;;;25.27;14.97;;;;;;;;;;5068740;28;20574;-81
2021/01/12 12:16:12;;;;;;;31.70;16.90;;;;;;;;;;5066709;28;20536;-82
2021/01/12 12:18:39;;;;;;;26.57;15.90;;;;;;;;;;5073312;28;20473;-82
2021/01/12 12:21:07;;;;;;;29.30;14.40;;;;;;;;;;5069265;28;20464;-83
2021/01/12 12:23:34;;;;;;;26.00;15.80;;;;;;;;;;5071566;28;20870;-81
2021/01/12 12:26:00;;;;;;;24.13;13.33;;;;;;;;;;5066172;28;20475;-82
2021/01/12 12:28:27;;;;;;;27.00;15.43;;;;;;;;;;5069049;28;20453;-81
2021/01/12 12:30:53;;;;;;;25.03;13.67;;;;;;;;;;5072404;28;20481;-81
2021/01/12 12:33:20;;;;;;;25.57;15.13;;;;;;;;;;5065973;28;20489;-83
2021/01/12 12:35:47;;;;;;;31.47;14.90;;;;;;;;;;5071390;28;20914;-81
2021/01/12 12:38:14;;;;;;;28.30;17.23;;;;;;;;;;5067873;28;20469;-82
2021/01/12 12:40:41;;;;;;;23.43;13.57;;;;;;;;;;5069878;28;20954;-82
2021/01/12 12:43:07;;;;;;;25.33;16.50;;;;;;;;;;5065722;28;20492;-82
2021/01/12 12:45:34;;;;;;;25.17;14.20;;;;;;;;;;5063077;28;20456;-81
2021/01/12 12:48:03;;;;;;;26.20;13.70;;;;;;;;;;5063590;28;20453;-84
2021/01/12 12:50:30;;;;;;;18.90;11.07;;;;;;;;;;5069728;28;20536;-82
2021/01/12 12:52:57;;;;;;;19.73;12.77;;;;;;;;;;5067658;28;20564;-82
2021/01/12 12:55:24;;;;;;;21.80;12.20;;;;;;;;;;5061762;28;20457;-83
2021/01/12 12:57:51;;;;;;;21.07;12.50;;;;;;;;;;5068606;28;20453;-81
2021/01/12 13:00:18;;;;;;;23.40;13.30;;;;;;;;;;5069966;28;20468;-82
2021/01/12 13:02:45;;;;;;;15.83;9.40;;;;;;;;;;5064659;28;20476;-82
2021/01/12 13:05:11;;;;;;;17.27;10.07;;;;;;;;;;5070009;28;20445;-82
2021/01/12 13:07:38;;;;;;;17.07;9.77;;;;;;;;;;5071527;28;21136;-81
2021/01/12 13:10:05;;;;;;;18.80;10.57;;;;;;;;;;5070371;28;20464;-82
2021/01/12 13:12:34;;;;;;;13.53;9.37;;;;;;;;;;5069994;28;20485;-83
2021/01/12 13:15:01;;;;;;;17.10;10.93;;;;;;;;;;5073443;28;20468;-82
2021/01/12 13:17:32;;;;;;;18.03;12.00;;;;;;;;;;5070472;28;20469;-82
2021/01/12 13:20:04;;;;;;;16.47;10.43;;;;;;;;;;5072947;28;20495;-82
2021/01/12 13:22:31;;;;;;;16.17;11.10;;;;;;;;;;5067241;28;20472;-82
2021/01/12 13:24:57;;;;;;;19.87;11.17;;;;;;;;;;5070882;28;20452;-81
2021/01/12 13:27:25;;;;;;;16.10;10.70;;;;;;;;;;5074693;28;20444;-82
2021/01/12 13:29:53;;;;;;;15.93;11.10;;;;;;;;;;5073654;28;20484;-82
2021/01/12 13:32:19;;;;;;;15.13;10.20;;;;;;;;;;5073814;28;20488;-81
2021/01/12 13:34:46;;;;;;;12.50;9.27;;;;;;;;;;5076649;28;20456;-82
2021/01/12 13:37:12;;;;;;;14.13;11.30;;;;;;;;;;5076478;28;20845;-82
2021/01/12 13:39:39;;;;;;;17.83;12.50;;;;;;;;;;5074920;28;20441;-82
2021/01/12 13:42:06;;;;;;;14.53;9.77;;;;;;;;;;5073613;28;21329;-82
2021/01/12 13:44:33;;;;;;;18.37;9.10;;;;;;;;;;5076429;28;20449;-84
2021/01/12 13:47:00;;;;;;;15.20;10.77;;;;;;;;;;5072471;28;20822;-82
2021/01/12 13:49:27;;;;;;;17.67;9.27;;;;;;;;;;5072562;28;20452;-83
2021/01/12 13:51:54;;;;;;;14.07;9.97;;;;;;;;;;5073749;28;20863;-83
2021/01/12 13:54:22;;;;;;;12.57;8.23;;;;;;;;;;5075659;28;20453;-82
2021/01/12 13:56:52;;;;;;;15.23;10.17;;;;;;;;;;5070893;28;20457;-83
2021/01/12 13:59:20;;;;;;;15.87;10.37;;;;;;;;;;5073920;28;20980;-82
2021/01/12 14:01:46;;;;;;;8.30;6.47;;;;;;;;;;5066508;28;20462;-82
2021/01/12 14:04:14;;;;;;;17.83;10.43;;;;;;;;;;5071550;28;20459;-82
2021/01/12 14:06:41;;;;;;;15.20;10.27;;;;;;;;;;5072473;28;20453;-84
2021/01/12 14:09:07;;;;;;;11.23;8.30;;;;;;;;;;5074367;28;20453;-83
2021/01/12 14:11:34;;;;;;;12.67;8.43;;;;;;;;;;5074412;28;20480;-84
2021/01/12 14:14:01;;;;;;;18.30;13.00;;;;;;;;;;5075846;28;20471;-82
2021/01/12 14:16:28;;;;;;;18.07;10.13;;;;;;;;;;5074004;28;20465;-84
2021/01/12 14:18:55;;;;;;;13.37;9.30;;;;;;;;;;5074586;28;20445;-83